Main page
METAR-TAF:

METAR-TAF

Airports :

Cranfield Airport

Cranfield, England

latitude: 52-04N, longitude: 000-37W, elevation: 111 m

Current weather observation

The report was made 2 hours and 17 minutes ago, at 17:20 UTC
Wind 6 kt from the Northeast
Temperature 18°C
Humidity 56%
Pressure 1022 hPa
Visibility 10 km or more
Few clouds at a height of 4900 ft

METAR: EGTC 191720Z 05006KT 9999 FEW049 18/09 Q1022

Time: 20:37 (19:37 UTC)

Forecast

The report was made 5 hours and 41 minutes ago, at 13:56 UTC
Forecast valid from 19 at 15 UTC to 19 at 18 UTC
Wind 8 kt from the East/Northeast
Visibility 10 km or more
Scattered clouds at a height of 4500 ft

TAF: EGTC 191356Z 1915/1918 06008KT 9999 SCT045

Weather observations and forecasts of more than 4000 airports (METAR and TAF reports).

The available stations are represented by yellow and red dots on the map.

Hover mouse over dot to see the name of the station.

Then click to see weather observations and forecasts.

To change the map : click on the green buttons with a black cross to zoom in, on the green button with a dash to zoom out, or on the green arrows for adjacent maps.


METAR-TAF: